sensor_id;sensor_type;location;lat;lon;timestamp;P1;durP1;ratioP1;P2;durP2;ratioP2
3901;SDS011;1966;49.908;9.156;2024-01-30T00:00:23;12.93;;;8.73;;
3901;SDS011;1966;49.908;9.156;2024-01-30T00:05:24;15.73;;;9.50;;
3901;SDS011;1966;49.908;9.156;2024-01-30T00:10:23;14.00;;;8.53;;
3901;SDS011;1966;49.908;9.156;2024-01-30T00:15:22;12.00;;;8.70;;
3901;SDS011;1966;49.908;9.156;2024-01-30T00:20:21;14.23;;;8.93;;
3901;SDS011;1966;49.908;9.156;2024-01-30T00:25:22;13.07;;;8.80;;
3901;SDS011;1966;49.908;9.156;2024-01-30T00:30:21;14.00;;;8.90;;
3901;SDS011;1966;49.908;9.156;2024-01-30T00:35:20;12.67;;;8.90;;
3901;SDS011;1966;49.908;9.156;2024-01-30T00:40:20;10.87;;;8.30;;
3901;SDS011;1966;49.908;9.156;2024-01-30T00:45:21;13.97;;;9.00;;
3901;SDS011;1966;49.908;9.156;2024-01-30T00:50:20;15.50;;;9.53;;
3901;SDS011;1966;49.908;9.156;2024-01-30T00:55:20;12.90;;;9.10;;
3901;SDS011;1966;49.908;9.156;2024-01-30T01:00:21;13.53;;;8.80;;
3901;SDS011;1966;49.908;9.156;2024-01-30T01:05:26;16.87;;;9.30;;
3901;SDS011;1966;49.908;9.156;2024-01-30T01:10:26;15.37;;;9.57;;
3901;SDS011;1966;49.908;9.156;2024-01-30T01:15:26;17.20;;;9.53;;
3901;SDS011;1966;49.908;9.156;2024-01-30T01:20:26;10.80;;;7.27;;
3901;SDS011;1966;49.908;9.156;2024-01-30T01:25:25;10.13;;;8.23;;
3901;SDS011;1966;49.908;9.156;2024-01-30T01:30:24;11.90;;;7.43;;
3901;SDS011;1966;49.908;9.156;2024-01-30T01:35:25;11.73;;;7.53;;
3901;SDS011;1966;49.908;9.156;2024-01-30T01:40:24;9.97;;;6.90;;
3901;SDS011;1966;49.908;9.156;2024-01-30T01:45:23;14.83;;;9.00;;
3901;SDS011;1966;49.908;9.156;2024-01-30T01:50:24;14.90;;;9.20;;
3901;SDS011;1966;49.908;9.156;2024-01-30T01:55:24;15.80;;;9.10;;
3901;SDS011;1966;49.908;9.156;2024-01-30T02:00:25;12.80;;;8.67;;
3901;SDS011;1966;49.908;9.156;2024-01-30T02:05:26;12.90;;;8.33;;
3901;SDS011;1966;49.908;9.156;2024-01-30T02:10:25;10.40;;;7.83;;
3901;SDS011;1966;49.908;9.156;2024-01-30T02:15:24;12.30;;;7.70;;
3901;SDS011;1966;49.908;9.156;2024-01-30T02:20:23;11.50;;;7.43;;
3901;SDS011;1966;49.908;9.156;2024-01-30T02:25:31;10.50;;;6.87;;
3901;SDS011;1966;49.908;9.156;2024-01-30T02:30:30;11.10;;;6.83;;
3901;SDS011;1966;49.908;9.156;2024-01-30T02:35:29;11.87;;;8.00;;
3901;SDS011;1966;49.908;9.156;2024-01-30T02:40:30;15.67;;;8.17;;
3901;SDS011;1966;49.908;9.156;2024-01-30T02:45:29;13.23;;;8.43;;
3901;SDS011;1966;49.908;9.156;2024-01-30T02:50:28;10.97;;;7.60;;
3901;SDS011;1966;49.908;9.156;2024-01-30T02:55:28;9.83;;;7.43;;
3901;SDS011;1966;49.908;9.156;2024-01-30T03:00:28;15.20;;;7.57;;
3901;SDS011;1966;49.908;9.156;2024-01-30T03:05:28;12.93;;;8.50;;
3901;SDS011;1966;49.908;9.156;2024-01-30T03:10:27;9.83;;;7.10;;
3901;SDS011;1966;49.908;9.156;2024-01-30T03:15:26;11.00;;;7.87;;
3901;SDS011;1966;49.908;9.156;2024-01-30T03:20:27;10.37;;;7.23;;
3901;SDS011;1966;49.908;9.156;2024-01-30T03:25:26;10.90;;;7.03;;
3901;SDS011;1966;49.908;9.156;2024-01-30T03:30:25;9.60;;;6.80;;
3901;SDS011;1966;49.908;9.156;2024-01-30T03:35:24;10.53;;;7.37;;
3901;SDS011;1966;49.908;9.156;2024-01-30T03:40:25;11.67;;;7.43;;
3901;SDS011;1966;49.908;9.156;2024-01-30T03:45:24;12.60;;;8.17;;
3901;SDS011;1966;49.908;9.156;2024-01-30T03:50:24;14.10;;;9.13;;
3901;SDS011;1966;49.908;9.156;2024-01-30T03:55:23;11.83;;;7.90;;
3901;SDS011;1966;49.908;9.156;2024-01-30T04:00:23;11.00;;;7.13;;
3901;SDS011;1966;49.908;9.156;2024-01-30T04:05:23;12.27;;;8.30;;
3901;SDS011;1966;49.908;9.156;2024-01-30T04:10:22;11.93;;;8.13;;
3901;SDS011;1966;49.908;9.156;2024-01-30T04:15:23;11.03;;;7.77;;
3901;SDS011;1966;49.908;9.156;2024-01-30T04:20:23;9.57;;;7.63;;
3901;SDS011;1966;49.908;9.156;2024-01-30T04:25:22;10.70;;;7.77;;
3901;SDS011;1966;49.908;9.156;2024-01-30T04:30:21;16.93;;;8.03;;
3901;SDS011;1966;49.908;9.156;2024-01-30T04:35:22;10.50;;;7.30;;
3901;SDS011;1966;49.908;9.156;2024-01-30T04:40:22;11.47;;;7.30;;
3901;SDS011;1966;49.908;9.156;2024-01-30T04:45:22;10.63;;;6.87;;
3901;SDS011;1966;49.908;9.156;2024-01-30T04:50:22;9.70;;;6.90;;
3901;SDS011;1966;49.908;9.156;2024-01-30T04:55:21;10.40;;;8.13;;
3901;SDS011;1966;49.908;9.156;2024-01-30T05:00:21;12.50;;;8.07;;
3901;SDS011;1966;49.908;9.156;2024-01-30T05:05:20;12.40;;;8.10;;
3901;SDS011;1966;49.908;9.156;2024-01-30T05:10:21;8.70;;;7.00;;
3901;SDS011;1966;49.908;9.156;2024-01-30T05:15:20;9.30;;;7.10;;
3901;SDS011;1966;49.908;9.156;2024-01-30T05:20:19;8.60;;;6.00;;
3901;SDS011;1966;49.908;9.156;2024-01-30T05:25:20;12.07;;;7.07;;
3901;SDS011;1966;49.908;9.156;2024-01-30T05:30:19;14.83;;;7.00;;
3901;SDS011;1966;49.908;9.156;2024-01-30T05:35:19;12.10;;;8.50;;
3901;SDS011;1966;49.908;9.156;2024-01-30T05:40:20;12.60;;;8.20;;
3901;SDS011;1966;49.908;9.156;2024-01-30T05:45:19;11.07;;;7.40;;
3901;SDS011;1966;49.908;9.156;2024-01-30T05:50:20;8.67;;;6.97;;
3901;SDS011;1966;49.908;9.156;2024-01-30T05:55:22;16.00;;;9.43;;
3901;SDS011;1966;49.908;9.156;2024-01-30T06:00:21;12.53;;;8.40;;
3901;SDS011;1966;49.908;9.156;2024-01-30T06:05:21;11.17;;;7.63;;
3901;SDS011;1966;49.908;9.156;2024-01-30T06:10:20;11.37;;;7.80;;
3901;SDS011;1966;49.908;9.156;2024-01-30T06:15:20;10.37;;;7.10;;
3901;SDS011;1966;49.908;9.156;2024-01-30T06:20:20;14.00;;;7.77;;
3901;SDS011;1966;49.908;9.156;2024-01-30T06:25:19;8.77;;;6.60;;
3901;SDS011;1966;49.908;9.156;2024-01-30T06:30:18;9.03;;;6.43;;
3901;SDS011;1966;49.908;9.156;2024-01-30T06:35:19;10.10;;;7.40;;
3901;SDS011;1966;49.908;9.156;2024-01-30T06:40:19;12.50;;;6.57;;
3901;SDS011;1966;49.908;9.156;2024-01-30T06:45:18;9.63;;;7.13;;
3901;SDS011;1966;49.908;9.156;2024-01-30T06:50:19;9.73;;;6.80;;
3901;SDS011;1966;49.908;9.156;2024-01-30T06:55:18;21.03;;;9.20;;
3901;SDS011;1966;49.908;9.156;2024-01-30T07:00:18;15.43;;;9.30;;
3901;SDS011;1966;49.908;9.156;2024-01-30T07:05:17;13.73;;;8.40;;
3901;SDS011;1966;49.908;9.156;2024-01-30T07:10:18;14.40;;;7.50;;
3901;SDS011;1966;49.908;9.156;2024-01-30T07:15:17;14.17;;;8.87;;
3901;SDS011;1966;49.908;9.156;2024-01-30T07:20:18;12.27;;;8.30;;
3901;SDS011;1966;49.908;9.156;2024-01-30T07:25:19;14.97;;;7.90;;
3901;SDS011;1966;49.908;9.156;2024-01-30T07:30:19;15.03;;;9.80;;
3901;SDS011;1966;49.908;9.156;2024-01-30T07:35:19;14.83;;;9.93;;
3901;SDS011;1966;49.908;9.156;2024-01-30T07:40:19;11.90;;;8.80;;
3901;SDS011;1966;49.908;9.156;2024-01-30T07:45:19;14.53;;;8.83;;
3901;SDS011;1966;49.908;9.156;2024-01-30T07:50:20;12.73;;;8.10;;
3901;SDS011;1966;49.908;9.156;2024-01-30T07:55:20;16.50;;;9.30;;
3901;SDS011;1966;49.908;9.156;2024-01-30T08:05:58;15.57;;;10.83;;
3901;SDS011;1966;49.908;9.156;2024-01-30T08:10:58;13.40;;;9.90;;
3901;SDS011;1966;49.908;9.156;2024-01-30T08:15:57;16.50;;;10.40;;
3901;SDS011;1966;49.908;9.156;2024-01-30T08:20:57;17.00;;;10.53;;
3901;SDS011;1966;49.908;9.156;2024-01-30T08:25:56;12.43;;;8.67;;
3901;SDS011;1966;49.908;9.156;2024-01-30T08:30:57;14.33;;;9.80;;
3901;SDS011;1966;49.908;9.156;2024-01-30T08:35:56;14.37;;;10.30;;
3901;SDS011;1966;49.908;9.156;2024-01-30T08:40:55;12.03;;;8.97;;
3901;SDS011;1966;49.908;9.156;2024-01-30T08:45:56;16.47;;;10.67;;
3901;SDS011;1966;49.908;9.156;2024-01-30T08:50:57;15.30;;;10.70;;
3901;SDS011;1966;49.908;9.156;2024-01-30T08:55:57;17.80;;;11.30;;
3901;SDS011;1966;49.908;9.156;2024-01-30T09:00:58;14.07;;;9.80;;
3901;SDS011;1966;49.908;9.156;2024-01-30T09:05:57;14.87;;;10.40;;
3901;SDS011;1966;49.908;9.156;2024-01-30T09:10:56;17.03;;;10.80;;
3901;SDS011;1966;49.908;9.156;2024-01-30T09:15:56;17.20;;;12.47;;
3901;SDS011;1966;49.908;9.156;2024-01-30T09:20:56;64.20;;;28.67;;
3901;SDS011;1966;49.908;9.156;2024-01-30T09:25:56;26.97;;;16.23;;
3901;SDS011;1966;49.908;9.156;2024-01-30T09:30:55;23.63;;;14.80;;
3901;SDS011;1966;49.908;9.156;2024-01-30T09:35:54;17.70;;;12.63;;
3901;SDS011;1966;49.908;9.156;2024-01-30T09:40:55;17.33;;;11.60;;
3901;SDS011;1966;49.908;9.156;2024-01-30T09:45:54;16.37;;;11.60;;
3901;SDS011;1966;49.908;9.156;2024-01-30T09:50:54;15.70;;;10.20;;
3901;SDS011;1966;49.908;9.156;2024-01-30T09:55:57;14.93;;;10.70;;
3901;SDS011;1966;49.908;9.156;2024-01-30T10:00:56;16.30;;;11.50;;
3901;SDS011;1966;49.908;9.156;2024-01-30T10:05:56;15.13;;;11.10;;
3901;SDS011;1966;49.908;9.156;2024-01-30T10:10:56;15.27;;;10.73;;
3901;SDS011;1966;49.908;9.156;2024-01-30T10:15:56;17.40;;;11.70;;
3901;SDS011;1966;49.908;9.156;2024-01-30T10:20:56;15.87;;;11.50;;
3901;SDS011;1966;49.908;9.156;2024-01-30T10:25:56;17.90;;;11.77;;
3901;SDS011;1966;49.908;9.156;2024-01-30T10:30:58;15.77;;;11.73;;
3901;SDS011;1966;49.908;9.156;2024-01-30T10:36:01;18.10;;;12.43;;
3901;SDS011;1966;49.908;9.156;2024-01-30T10:41:01;17.40;;;12.00;;
3901;SDS011;1966;49.908;9.156;2024-01-30T10:46:04;17.10;;;11.70;;
3901;SDS011;1966;49.908;9.156;2024-01-30T10:51:05;17.70;;;12.40;;
3901;SDS011;1966;49.908;9.156;2024-01-30T10:56:06;16.90;;;12.20;;
3901;SDS011;1966;49.908;9.156;2024-01-30T11:01:07;16.20;;;11.80;;
3901;SDS011;1966;49.908;9.156;2024-01-30T11:06:10;24.20;;;14.40;;
3901;SDS011;1966;49.908;9.156;2024-01-30T11:11:10;15.77;;;11.60;;
3901;SDS011;1966;49.908;9.156;2024-01-30T11:16:10;14.20;;;10.00;;
3901;SDS011;1966;49.908;9.156;2024-01-30T11:21:10;17.73;;;11.47;;
3901;SDS011;1966;49.908;9.156;2024-01-30T11:26:14;17.43;;;12.33;;
3901;SDS011;1966;49.908;9.156;2024-01-30T11:31:13;17.50;;;11.67;;
3901;SDS011;1966;49.908;9.156;2024-01-30T11:36:17;17.07;;;11.33;;
3901;SDS011;1966;49.908;9.156;2024-01-30T11:41:19;16.57;;;11.33;;
3901;SDS011;1966;49.908;9.156;2024-01-30T11:46:18;12.00;;;10.57;;
3901;SDS011;1966;49.908;9.156;2024-01-30T11:51:17;17.80;;;12.10;;
3901;SDS011;1966;49.908;9.156;2024-01-30T11:56:19;18.53;;;12.00;;
3901;SDS011;1966;49.908;9.156;2024-01-30T12:01:18;18.63;;;12.57;;
3901;SDS011;1966;49.908;9.156;2024-01-30T12:06:17;13.90;;;11.00;;
3901;SDS011;1966;49.908;9.156;2024-01-30T12:11:18;15.43;;;11.07;;
3901;SDS011;1966;49.908;9.156;2024-01-30T12:16:17;16.37;;;12.07;;
3901;SDS011;1966;49.908;9.156;2024-01-30T12:21:17;16.23;;;12.70;;
3901;SDS011;1966;49.908;9.156;2024-01-30T12:26:16;22.07;;;13.80;;
3901;SDS011;1966;49.908;9.156;2024-01-30T12:31:17;18.10;;;12.37;;
3901;SDS011;1966;49.908;9.156;2024-01-30T12:36:16;18.93;;;13.80;;
3901;SDS011;1966;49.908;9.156;2024-01-30T12:41:15;20.50;;;13.33;;
3901;SDS011;1966;49.908;9.156;2024-01-30T12:46:17;18.70;;;13.10;;
3901;SDS011;1966;49.908;9.156;2024-01-30T12:51:17;16.37;;;12.53;;
3901;SDS011;1966;49.908;9.156;2024-01-30T12:56:16;18.40;;;15.00;;
3901;SDS011;1966;49.908;9.156;2024-01-30T13:01:15;20.53;;;14.33;;
3901;SDS011;1966;49.908;9.156;2024-01-30T13:06:16;20.17;;;14.23;;
3901;SDS011;1966;49.908;9.156;2024-01-30T13:11:15;15.97;;;13.00;;
3901;SDS011;1966;49.908;9.156;2024-01-30T13:16:15;21.83;;;12.20;;
3901;SDS011;1966;49.908;9.156;2024-01-30T13:21:16;15.67;;;11.60;;
3901;SDS011;1966;49.908;9.156;2024-01-30T13:26:15;13.70;;;10.13;;
3901;SDS011;1966;49.908;9.156;2024-01-30T13:31:14;15.30;;;10.50;;
3901;SDS011;1966;49.908;9.156;2024-01-30T13:36:15;14.83;;;11.50;;
3901;SDS011;1966;49.908;9.156;2024-01-30T13:41:15;13.67;;;9.50;;
3901;SDS011;1966;49.908;9.156;2024-01-30T13:46:14;10.93;;;9.07;;
3901;SDS011;1966;49.908;9.156;2024-01-30T13:51:15;8.00;;;6.17;;
3901;SDS011;1966;49.908;9.156;2024-01-30T13:56:15;9.30;;;7.37;;
3901;SDS011;1966;49.908;9.156;2024-01-30T14:01:14;8.23;;;6.83;;
3901;SDS011;1966;49.908;9.156;2024-01-30T14:06:13;16.87;;;12.03;;
3901;SDS011;1966;49.908;9.156;2024-01-30T14:11:14;17.07;;;9.97;;
3901;SDS011;1966;49.908;9.156;2024-01-30T14:16:13;12.40;;;9.40;;
3901;SDS011;1966;49.908;9.156;2024-01-30T14:21:13;11.30;;;8.13;;
3901;SDS011;1966;49.908;9.156;2024-01-30T14:26:12;12.70;;;8.07;;
3901;SDS011;1966;49.908;9.156;2024-01-30T14:31:12;10.40;;;7.00;;
3901;SDS011;1966;49.908;9.156;2024-01-30T14:36:12;8.37;;;6.57;;
3901;SDS011;1966;49.908;9.156;2024-01-30T14:41:12;16.13;;;10.47;;
3901;SDS011;1966;49.908;9.156;2024-01-30T14:46:12;14.47;;;11.60;;
3901;SDS011;1966;49.908;9.156;2024-01-30T14:51:12;14.87;;;11.07;;
3901;SDS011;1966;49.908;9.156;2024-01-30T14:56:11;15.37;;;9.17;;
3901;SDS011;1966;49.908;9.156;2024-01-30T15:01:10;12.47;;;9.40;;
3901;SDS011;1966;49.908;9.156;2024-01-30T15:06:11;19.17;;;13.37;;
3901;SDS011;1966;49.908;9.156;2024-01-30T15:11:11;21.60;;;12.27;;
3901;SDS011;1966;49.908;9.156;2024-01-30T15:16:10;18.97;;;13.60;;
3901;SDS011;1966;49.908;9.156;2024-01-30T15:21:11;24.90;;;16.40;;
3901;SDS011;1966;49.908;9.156;2024-01-30T15:26:10;29.10;;;16.83;;
3901;SDS011;1966;49.908;9.156;2024-01-30T15:31:09;31.40;;;18.60;;
3901;SDS011;1966;49.908;9.156;2024-01-30T15:36:09;26.30;;;17.57;;
3901;SDS011;1966;49.908;9.156;2024-01-30T15:41:12;23.53;;;16.00;;
3901;SDS011;1966;49.908;9.156;2024-01-30T15:46:11;24.10;;;17.17;;
3901;SDS011;1966;49.908;9.156;2024-01-30T15:51:11;30.27;;;17.07;;
3901;SDS011;1966;49.908;9.156;2024-01-30T15:56:10;60.07;;;26.03;;
3901;SDS011;1966;49.908;9.156;2024-01-30T16:01:10;74.13;;;34.20;;
3901;SDS011;1966;49.908;9.156;2024-01-30T16:06:10;70.13;;;31.90;;
3901;SDS011;1966;49.908;9.156;2024-01-30T16:11:09;60.20;;;27.60;;
3901;SDS011;1966;49.908;9.156;2024-01-30T16:16:08;36.60;;;18.40;;
3901;SDS011;1966;49.908;9.156;2024-01-30T16:21:10;31.60;;;16.63;;
3901;SDS011;1966;49.908;9.156;2024-01-30T16:26:10;21.50;;;13.00;;
3901;SDS011;1966;49.908;9.156;2024-01-30T16:31:09;18.93;;;11.73;;
3901;SDS011;1966;49.908;9.156;2024-01-30T16:36:08;19.20;;;11.47;;
3901;SDS011;1966;49.908;9.156;2024-01-30T16:41:10;22.37;;;15.07;;
3901;SDS011;1966;49.908;9.156;2024-01-30T16:46:09;26.43;;;15.03;;
3901;SDS011;1966;49.908;9.156;2024-01-30T16:51:09;23.60;;;14.73;;
3901;SDS011;1966;49.908;9.156;2024-01-30T16:56:09;19.00;;;13.90;;
3901;SDS011;1966;49.908;9.156;2024-01-30T17:01:09;21.53;;;14.13;;
3901;SDS011;1966;49.908;9.156;2024-01-30T17:06:10;21.57;;;14.50;;
3901;SDS011;1966;49.908;9.156;2024-01-30T17:11:10;20.93;;;13.70;;
3901;SDS011;1966;49.908;9.156;2024-01-30T17:16:09;24.47;;;14.77;;
3901;SDS011;1966;49.908;9.156;2024-01-30T17:21:15;31.30;;;18.80;;
3901;SDS011;1966;49.908;9.156;2024-01-30T17:26:16;25.90;;;17.00;;
3901;SDS011;1966;49.908;9.156;2024-01-30T17:31:15;26.43;;;16.33;;
3901;SDS011;1966;49.908;9.156;2024-01-30T17:36:14;31.97;;;18.50;;
3901;SDS011;1966;49.908;9.156;2024-01-30T17:41:13;29.80;;;17.93;;
3901;SDS011;1966;49.908;9.156;2024-01-30T17:46:14;19.90;;;14.50;;
3901;SDS011;1966;49.908;9.156;2024-01-30T17:51:13;20.80;;;13.63;;
3901;SDS011;1966;49.908;9.156;2024-01-30T17:56:13;16.50;;;11.70;;
3901;SDS011;1966;49.908;9.156;2024-01-30T18:01:12;16.60;;;10.47;;
3901;SDS011;1966;49.908;9.156;2024-01-30T18:06:14;15.07;;;11.13;;
3901;SDS011;1966;49.908;9.156;2024-01-30T18:11:14;16.80;;;11.20;;
3901;SDS011;1966;49.908;9.156;2024-01-30T18:16:13;16.27;;;11.57;;
3901;SDS011;1966;49.908;9.156;2024-01-30T18:21:15;20.50;;;12.50;;
3901;SDS011;1966;49.908;9.156;2024-01-30T18:26:14;24.97;;;18.70;;
3901;SDS011;1966;49.908;9.156;2024-01-30T18:31:14;18.80;;;14.53;;
3901;SDS011;1966;49.908;9.156;2024-01-30T18:36:15;21.37;;;14.30;;
3901;SDS011;1966;49.908;9.156;2024-01-30T18:41:14;20.53;;;14.80;;
3901;SDS011;1966;49.908;9.156;2024-01-30T18:46:14;24.90;;;16.60;;
3901;SDS011;1966;49.908;9.156;2024-01-30T18:51:20;21.47;;;14.13;;
3901;SDS011;1966;49.908;9.156;2024-01-30T18:56:19;23.40;;;14.53;;
3901;SDS011;1966;49.908;9.156;2024-01-30T19:01:19;20.97;;;14.07;;
3901;SDS011;1966;49.908;9.156;2024-01-30T19:06:18;19.80;;;13.80;;
3901;SDS011;1966;49.908;9.156;2024-01-30T19:11:19;23.87;;;15.87;;
3901;SDS011;1966;49.908;9.156;2024-01-30T19:16:19;32.27;;;20.20;;
3901;SDS011;1966;49.908;9.156;2024-01-30T19:21:18;24.63;;;17.60;;
3901;SDS011;1966;49.908;9.156;2024-01-30T19:26:17;23.53;;;15.80;;
3901;SDS011;1966;49.908;9.156;2024-01-30T19:31:18;25.37;;;16.33;;
3901;SDS011;1966;49.908;9.156;2024-01-30T19:36:17;23.87;;;16.53;;
3901;SDS011;1966;49.908;9.156;2024-01-30T19:41:17;26.60;;;16.83;;
3901;SDS011;1966;49.908;9.156;2024-01-30T19:46:17;22.60;;;14.50;;
3901;SDS011;1966;49.908;9.156;2024-01-30T19:51:16;18.50;;;13.13;;
3901;SDS011;1966;49.908;9.156;2024-01-30T19:56:16;23.13;;;15.60;;
3901;SDS011;1966;49.908;9.156;2024-01-30T20:01:15;23.90;;;15.67;;
3901;SDS011;1966;49.908;9.156;2024-01-30T20:06:16;42.73;;;23.70;;
3901;SDS011;1966;49.908;9.156;2024-01-30T20:11:15;29.90;;;18.70;;
3901;SDS011;1966;49.908;9.156;2024-01-30T20:16:15;22.37;;;14.60;;
3901;SDS011;1966;49.908;9.156;2024-01-30T20:21:15;17.77;;;11.90;;
3901;SDS011;1966;49.908;9.156;2024-01-30T20:26:14;18.80;;;12.47;;
3901;SDS011;1966;49.908;9.156;2024-01-30T20:31:14;19.80;;;13.77;;
3901;SDS011;1966;49.908;9.156;2024-01-30T20:36:14;15.30;;;12.77;;
3901;SDS011;1966;49.908;9.156;2024-01-30T20:41:14;16.93;;;11.73;;
3901;SDS011;1966;49.908;9.156;2024-01-30T20:46:14;23.43;;;13.83;;
3901;SDS011;1966;49.908;9.156;2024-01-30T20:51:13;17.47;;;12.27;;
3901;SDS011;1966;49.908;9.156;2024-01-30T20:56:12;19.27;;;11.30;;
3901;SDS011;1966;49.908;9.156;2024-01-30T21:01:13;19.57;;;12.17;;
3901;SDS011;1966;49.908;9.156;2024-01-30T21:06:12;22.77;;;11.40;;
3901;SDS011;1966;49.908;9.156;2024-01-30T21:11:12;19.90;;;11.40;;
3901;SDS011;1966;49.908;9.156;2024-01-30T21:16:11;15.00;;;11.30;;
3901;SDS011;1966;49.908;9.156;2024-01-30T21:21:12;16.93;;;11.97;;
3901;SDS011;1966;49.908;9.156;2024-01-30T21:26:11;18.67;;;12.40;;
3901;SDS011;1966;49.908;9.156;2024-01-30T21:31:12;18.57;;;12.10;;
3901;SDS011;1966;49.908;9.156;2024-01-30T21:36:14;16.40;;;12.30;;
3901;SDS011;1966;49.908;9.156;2024-01-30T21:41:14;20.60;;;13.00;;
3901;SDS011;1966;49.908;9.156;2024-01-30T21:46:22;17.90;;;12.80;;
3901;SDS011;1966;49.908;9.156;2024-01-30T21:51:22;25.50;;;12.60;;
3901;SDS011;1966;49.908;9.156;2024-01-30T21:56:22;22.20;;;14.20;;
3901;SDS011;1966;49.908;9.156;2024-01-30T22:01:21;20.73;;;14.37;;
3901;SDS011;1966;49.908;9.156;2024-01-30T22:06:20;22.93;;;14.70;;
3901;SDS011;1966;49.908;9.156;2024-01-30T22:11:22;24.70;;;16.33;;
3901;SDS011;1966;49.908;9.156;2024-01-30T22:16:21;24.87;;;14.90;;
3901;SDS011;1966;49.908;9.156;2024-01-30T22:21:21;19.40;;;12.80;;
3901;SDS011;1966;49.908;9.156;2024-01-30T22:26:20;18.90;;;13.00;;
3901;SDS011;1966;49.908;9.156;2024-01-30T22:31:21;16.43;;;11.63;;
3901;SDS011;1966;49.908;9.156;2024-01-30T22:36:20;26.07;;;15.43;;
3901;SDS011;1966;49.908;9.156;2024-01-30T22:41:20;18.60;;;13.37;;
3901;SDS011;1966;49.908;9.156;2024-01-30T22:46:21;17.70;;;11.93;;
3901;SDS011;1966;49.908;9.156;2024-01-30T22:51:20;19.73;;;12.50;;
3901;SDS011;1966;49.908;9.156;2024-01-30T22:56:20;18.27;;;12.03;;
3901;SDS011;1966;49.908;9.156;2024-01-30T23:01:19;23.07;;;14.00;;
3901;SDS011;1966;49.908;9.156;2024-01-30T23:06:20;20.73;;;14.37;;
3901;SDS011;1966;49.908;9.156;2024-01-30T23:11:19;16.67;;;12.63;;
3901;SDS011;1966;49.908;9.156;2024-01-30T23:16:18;21.00;;;13.43;;
3901;SDS011;1966;49.908;9.156;2024-01-30T23:21:19;18.30;;;11.63;;
3901;SDS011;1966;49.908;9.156;2024-01-30T23:26:18;18.43;;;11.03;;
3901;SDS011;1966;49.908;9.156;2024-01-30T23:31:18;18.90;;;12.40;;
3901;SDS011;1966;49.908;9.156;2024-01-30T23:36:19;18.50;;;12.03;;
3901;SDS011;1966;49.908;9.156;2024-01-30T23:41:19;17.00;;;11.70;;
3901;SDS011;1966;49.908;9.156;2024-01-30T23:46:18;17.40;;;12.50;;
3901;SDS011;1966;49.908;9.156;2024-01-30T23:51:17;16.20;;;11.73;;
3901;SDS011;1966;49.908;9.156;2024-01-30T23:56:18;17.87;;;12.83;;
